createdAt,value
2018-07-25T00:00:31.848Z,73.47
2018-07-25T00:03:36.065Z,73.56
2018-07-25T00:06:40.265Z,74.38
2018-07-25T00:09:44.497Z,74.53
2018-07-25T00:12:48.708Z,74.26
2018-07-25T00:15:52.920Z,75.06
2018-07-25T00:18:57.104Z,74.69
2018-07-25T00:22:01.330Z,75.29
2018-07-25T00:25:05.585Z,75.65
2018-07-25T00:28:09.822Z,75.17
2018-07-25T00:31:14.012Z,76.04
2018-07-25T00:34:18.244Z,75.42
2018-07-25T00:37:22.449Z,75.82
2018-07-25T00:40:26.687Z,76.27
2018-07-25T00:43:30.914Z,76.12
2018-07-25T00:46:35.193Z,76.70
2018-07-25T00:49:39.394Z,77.01
2018-07-25T00:52:43.609Z,76.58
2018-07-25T00:55:47.821Z,76.35
2018-07-25T00:58:52.050Z,77.10
2018-07-25T01:01:56.280Z,76.89
2018-07-25T01:05:00.514Z,77.24
2018-07-25T01:08:04.720Z,77.94
2018-07-25T01:11:09.002Z,77.28
2018-07-25T01:14:13.212Z,78.00
2018-07-25T01:17:17.485Z,77.75
2018-07-25T01:20:21.681Z,78.70
2018-07-25T01:23:25.919Z,78.34
2018-07-25T01:26:30.118Z,79.27
2018-07-25T01:29:34.120Z,79.51
2018-07-25T01:32:38.356Z,79.39
2018-07-25T01:35:42.629Z,79.06
2018-07-25T01:38:46.824Z,79.03
2018-07-25T01:41:51.060Z,79.83
2018-07-25T01:44:55.260Z,79.49
2018-07-25T01:47:59.497Z,79.66
2018-07-25T01:51:03.740Z,80.50
2018-07-25T01:54:07.963Z,79.55
2018-07-25T01:57:12.219Z,80.50
2018-07-25T02:00:16.473Z,80.37
2018-07-25T02:03:20.705Z,79.89
2018-07-25T02:06:25.717Z,80.04
2018-07-25T02:09:29.940Z,80.54
2018-07-25T02:12:34.264Z,79.98
2018-07-25T02:15:38.452Z,80.99
2018-07-25T02:18:42.689Z,80.41
2018-07-25T02:21:46.892Z,80.74
2018-07-25T02:24:51.145Z,81.63
2018-07-25T02:27:55.397Z,81.11
2018-07-25T02:31:00.047Z,81.37
2018-07-25T02:34:09.637Z,81.95
2018-07-25T02:37:13.865Z,81.33
2018-07-25T02:40:18.220Z,81.03
2018-07-25T02:43:22.443Z,81.39
2018-07-25T02:46:26.678Z,82.25
2018-07-25T02:49:30.936Z,81.51
2018-07-25T02:52:35.165Z,81.91
2018-07-25T02:55:39.394Z,82.09
2018-07-25T02:58:43.618Z,82.29
2018-07-25T03:01:47.853Z,81.89
2018-07-25T03:04:52.077Z,81.89
2018-07-25T03:07:56.278Z,81.23
2018-07-25T03:11:00.510Z,81.49
2018-07-25T03:14:04.742Z,81.69
2018-07-25T03:17:09.139Z,81.75
2018-07-25T03:20:13.425Z,81.10
2018-07-25T03:23:17.614Z,81.78
2018-07-25T03:26:21.843Z,82.27
2018-07-25T03:29:26.049Z,82.48
2018-07-25T03:32:30.245Z,83.64
2018-07-25T03:35:34.445Z,83.64
2018-07-25T03:38:38.668Z,83.66
2018-07-25T03:41:42.888Z,83.90
2018-07-25T03:44:47.128Z,83.56
2018-07-25T03:47:51.344Z,83.60
2018-07-25T03:50:55.597Z,83.52
2018-07-25T03:53:59.837Z,83.69
2018-07-25T03:57:04.114Z,83.43
2018-07-25T04:00:08.313Z,84.25
2018-07-25T04:03:12.542Z,84.28
2018-07-25T04:06:16.767Z,84.38
2018-07-25T04:09:20.977Z,84.14
2018-07-25T04:12:25.356Z,83.58
2018-07-25T04:15:29.349Z,84.39
2018-07-25T04:18:33.549Z,83.57
2018-07-25T04:21:37.746Z,84.07
2018-07-25T04:24:41.986Z,83.80
2018-07-25T04:27:46.978Z,84.30
2018-07-25T04:30:51.216Z,83.45
2018-07-25T04:33:55.427Z,83.43
2018-07-25T04:36:59.634Z,83.38
2018-07-25T04:40:03.873Z,83.43
2018-07-25T04:43:08.096Z,84.01
2018-07-25T04:46:12.368Z,83.73
2018-07-25T04:49:16.553Z,83.32
2018-07-25T04:52:20.772Z,83.50
2018-07-25T04:55:24.993Z,83.61
2018-07-25T04:58:29.881Z,83.29
2018-07-25T05:01:34.121Z,83.31
2018-07-25T05:04:38.329Z,82.78
2018-07-25T05:07:42.557Z,83.20
2018-07-25T05:10:46.785Z,82.31
2018-07-25T05:13:51.004Z,81.20
2018-07-25T05:16:55.232Z,81.91
2018-07-25T05:19:59.457Z,80.94
2018-07-25T05:23:03.666Z,81.56
2018-07-25T05:26:07.842Z,81.00
2018-07-25T05:29:12.070Z,79.97
2018-07-25T05:32:16.281Z,79.98
2018-07-25T05:35:20.488Z,79.77
2018-07-25T05:38:24.715Z,78.60
2018-07-25T05:41:28.961Z,78.89
2018-07-25T05:44:33.196Z,78.07
2018-07-25T05:47:37.448Z,78.07
2018-07-25T05:50:41.717Z,78.42
2018-07-25T05:53:46.086Z,78.40
2018-07-25T05:56:50.322Z,78.08
2018-07-25T05:59:54.504Z,76.76
2018-07-25T06:02:58.721Z,76.58
2018-07-25T06:06:02.985Z,76.28
2018-07-25T06:09:09.427Z,74.88
2018-07-25T06:12:13.642Z,74.41
2018-07-25T06:15:17.633Z,75.59
2018-07-25T06:18:21.828Z,74.80
2018-07-25T06:21:26.029Z,73.94
2018-07-25T06:24:30.220Z,73.19
2018-07-25T06:27:34.538Z,73.12
2018-07-25T06:30:38.753Z,72.75
2018-07-25T06:33:42.959Z,73.51
2018-07-25T06:36:47.150Z,72.33
2018-07-25T06:39:51.385Z,69.41
2018-07-25T06:42:55.656Z,68.49
2018-07-25T06:45:59.852Z,67.20
2018-07-25T06:49:04.312Z,66.65
2018-07-25T06:52:08.531Z,66.54
2018-07-25T06:55:12.760Z,65.40
2018-07-25T06:58:16.949Z,66.43
2018-07-25T07:01:21.140Z,66.27
2018-07-25T07:04:25.369Z,66.45
2018-07-25T07:07:29.568Z,66.20
2018-07-25T07:10:33.819Z,64.78
2018-07-25T07:13:38.035Z,64.44
2018-07-25T07:16:42.256Z,64.57
2018-07-25T07:19:46.468Z,63.77
2018-07-25T07:22:50.697Z,63.05
2018-07-25T07:25:54.978Z,63.05
2018-07-25T07:28:59.129Z,61.10
2018-07-25T07:32:03.340Z,60.54
2018-07-25T07:35:07.544Z,59.66
2018-07-25T07:38:11.764Z,59.48
2018-07-25T07:41:15.965Z,58.95
2018-07-25T07:44:20.176Z,58.85
2018-07-25T07:47:24.388Z,59.27
2018-07-25T07:50:28.580Z,57.25
2018-07-25T07:53:32.792Z,58.04
2018-07-25T07:56:36.987Z,57.12
2018-07-25T07:59:41.181Z,55.98
2018-07-25T08:02:45.384Z,56.08
2018-07-25T08:05:49.609Z,55.26
2018-07-25T08:08:53.809Z,55.14
2018-07-25T08:11:58.053Z,53.83
2018-07-25T08:15:02.253Z,53.42
2018-07-25T08:18:06.459Z,53.74
2018-07-25T08:21:10.769Z,52.78
2018-07-25T08:24:14.952Z,52.58
2018-07-25T08:27:19.210Z,51.05
2018-07-25T08:30:23.197Z,52.50
2018-07-25T08:33:27.421Z,50.86
2018-07-25T08:36:31.632Z,51.40
2018-07-25T08:39:35.915Z,49.87
2018-07-25T08:42:42.258Z,49.95
2018-07-25T08:45:51.458Z,49.86
2018-07-25T08:48:56.127Z,49.71
2018-07-25T08:52:00.925Z,50.14
2018-07-25T08:55:05.427Z,48.76
2018-07-25T08:58:10.934Z,48.99
2018-07-25T09:01:18.555Z,48.77
2018-07-25T09:04:24.518Z,47.46
2018-07-25T09:07:29.005Z,46.12
2018-07-25T09:10:33.212Z,47.27
2018-07-25T09:13:37.449Z,46.91
2018-07-25T09:16:41.719Z,45.24
2018-07-25T09:19:46.089Z,44.36
2018-07-25T09:22:50.309Z,45.37
2018-07-25T09:25:54.551Z,45.92
2018-07-25T09:28:58.754Z,43.72
2018-07-25T09:32:02.992Z,45.08
2018-07-25T09:35:07.236Z,45.52
2018-07-25T09:38:11.490Z,44.55
2018-07-25T09:41:15.722Z,44.82
2018-07-25T09:44:19.940Z,43.67
2018-07-25T09:47:24.199Z,41.33
2018-07-25T09:50:28.391Z,43.20
2018-07-25T09:53:32.647Z,42.67
2018-07-25T09:56:36.869Z,43.09
2018-07-25T09:59:40.871Z,43.71
2018-07-25T10:02:45.129Z,42.96
2018-07-25T10:05:49.305Z,43.06
2018-07-25T10:08:53.537Z,42.36
2018-07-25T10:11:57.764Z,42.36
2018-07-25T10:15:01.999Z,41.86
2018-07-25T10:18:06.384Z,41.38
2018-07-25T10:21:10.597Z,41.93
2018-07-25T10:24:14.846Z,41.37
2018-07-25T10:27:19.112Z,42.27
2018-07-25T10:30:23.469Z,41.32
2018-07-25T10:33:27.741Z,40.43
2018-07-25T10:36:31.960Z,39.78
2018-07-25T10:39:36.196Z,40.48
2018-07-25T10:42:40.457Z,40.35
2018-07-25T10:45:44.624Z,40.00
2018-07-25T10:48:48.873Z,41.43
2018-07-25T10:51:53.074Z,40.23
2018-07-25T10:54:57.296Z,39.79
2018-07-25T10:58:01.542Z,40.08
2018-07-25T11:01:05.832Z,39.72
2018-07-25T11:04:10.049Z,40.27
2018-07-25T11:07:14.277Z,40.52
2018-07-25T11:10:18.499Z,40.26
2018-07-25T11:13:22.697Z,39.63
2018-07-25T11:16:27.002Z,40.65
2018-07-25T11:19:31.196Z,40.88
2018-07-25T11:22:35.449Z,38.82
2018-07-25T11:25:39.665Z,39.10
2018-07-25T11:28:43.917Z,39.32
2018-07-25T11:31:48.153Z,40.19
2018-07-25T11:34:52.373Z,40.57
2018-07-25T11:37:56.625Z,40.26
2018-07-25T11:41:01.236Z,40.01
2018-07-25T11:44:05.448Z,39.41
2018-07-25T11:47:09.662Z,40.15
2018-07-25T11:50:13.957Z,38.89
2018-07-25T11:53:18.162Z,38.74
2018-07-25T11:56:22.401Z,38.38
2018-07-25T11:59:26.632Z,38.86
2018-07-25T12:02:30.828Z,38.91
2018-07-25T12:05:35.041Z,37.99
2018-07-25T12:08:39.277Z,39.75
2018-07-25T12:11:46.500Z,37.27
2018-07-25T12:14:50.742Z,39.31
2018-07-25T12:17:54.940Z,39.98
2018-07-25T12:20:59.188Z,38.28
2018-07-25T12:24:03.398Z,38.13
2018-07-25T12:27:07.627Z,38.08
2018-07-25T12:30:11.860Z,37.27
2018-07-25T12:33:15.957Z,36.38
2018-07-25T12:36:20.373Z,37.38
2018-07-25T12:39:24.641Z,37.03
2018-07-25T12:42:28.855Z,36.66
2018-07-25T12:45:33.092Z,36.74
2018-07-25T12:48:37.325Z,38.18
2018-07-25T12:51:41.568Z,36.27
2018-07-25T12:54:45.809Z,37.72
2018-07-25T12:57:49.799Z,37.16
2018-07-25T13:00:54.042Z,36.80
2018-07-25T13:03:58.298Z,36.99
2018-07-25T13:07:02.535Z,36.79
2018-07-25T13:10:06.820Z,36.53
2018-07-25T13:13:11.065Z,37.09
2018-07-25T13:16:15.322Z,37.42
2018-07-25T13:19:19.571Z,35.73
2018-07-25T13:22:23.826Z,36.98
2018-07-25T13:25:28.081Z,36.77
2018-07-25T13:28:32.351Z,35.80
2018-07-25T13:31:36.559Z,34.96
2018-07-25T13:34:40.804Z,34.94
2018-07-25T13:37:45.025Z,35.46
2018-07-25T13:40:49.250Z,35.58
2018-07-25T13:43:53.465Z,37.00
2018-07-25T13:46:57.691Z,36.96
2018-07-25T13:50:01.932Z,36.00
2018-07-25T13:53:06.313Z,36.66
2018-07-25T13:56:10.561Z,37.23
2018-07-25T13:59:14.544Z,36.48
2018-07-25T14:02:18.792Z,36.11
2018-07-25T14:05:23.026Z,37.73
2018-07-25T14:08:27.234Z,37.45
2018-07-25T14:11:31.540Z,35.82
2018-07-25T14:14:35.692Z,36.24
2018-07-25T14:17:39.926Z,36.97
2018-07-25T14:20:44.558Z,35.84
2018-07-25T14:23:48.886Z,36.10
2018-07-25T14:26:53.091Z,36.50
2018-07-25T14:29:57.342Z,36.63
2018-07-25T14:33:01.560Z,36.04
2018-07-25T14:36:06.166Z,35.01
2018-07-25T14:39:11.398Z,35.90
2018-07-25T14:42:15.645Z,36.67
2018-07-25T14:45:19.845Z,36.73
2018-07-25T14:48:24.049Z,35.67
2018-07-25T14:51:28.320Z,36.52
2018-07-25T14:54:32.522Z,35.80
2018-07-25T14:57:36.749Z,36.53
2018-07-25T15:00:40.985Z,36.31
2018-07-25T15:03:45.241Z,35.89
2018-07-25T15:06:49.488Z,36.05
2018-07-25T15:09:53.701Z,36.73
2018-07-25T15:12:59.549Z,40.54
2018-07-25T15:16:03.761Z,44.36
2018-07-25T15:19:08.034Z,46.80
2018-07-25T15:22:12.264Z,49.41
2018-07-25T15:25:16.518Z,53.25
2018-07-25T15:28:20.768Z,54.66
2018-07-25T15:31:25.037Z,53.63
2018-07-25T15:34:29.293Z,52.05
2018-07-25T15:37:33.545Z,51.93
2018-07-25T15:40:37.805Z,51.82
2018-07-25T15:43:42.020Z,51.62
2018-07-25T15:46:46.274Z,49.94
2018-07-25T15:49:50.444Z,49.55
2018-07-25T15:52:54.734Z,46.62
2018-07-25T15:55:58.917Z,47.61
2018-07-25T15:59:04.149Z,46.52
2018-07-25T16:02:09.176Z,47.21
2018-07-25T16:05:13.401Z,46.82
2018-07-25T16:08:17.657Z,45.75
2018-07-25T16:11:21.905Z,44.87
2018-07-25T16:14:26.177Z,44.19
2018-07-25T16:17:30.404Z,45.22
2018-07-25T16:20:34.645Z,46.67
2018-07-25T16:23:39.012Z,46.47
2018-07-25T16:26:43.264Z,47.19
2018-07-25T16:29:47.492Z,46.61
2018-07-25T16:32:51.732Z,48.74
2018-07-25T16:35:56.082Z,48.22
2018-07-25T16:39:00.300Z,49.17
2018-07-25T16:42:04.534Z,48.91
2018-07-25T16:45:08.774Z,48.54
2018-07-25T16:48:13.029Z,49.99
2018-07-25T16:51:17.252Z,48.87
2018-07-25T16:54:21.529Z,49.79
2018-07-25T16:57:25.773Z,49.18
2018-07-25T17:00:30.022Z,48.61
2018-07-25T17:03:34.288Z,48.93
2018-07-25T17:06:38.556Z,49.89
2018-07-25T17:09:42.834Z,48.50
2018-07-25T17:12:47.074Z,49.01
2018-07-25T17:15:51.328Z,47.53
2018-07-25T17:18:55.613Z,47.57
2018-07-25T17:21:59.882Z,46.91
2018-07-25T17:25:04.187Z,46.85
2018-07-25T17:28:08.449Z,48.14
2018-07-25T17:31:12.717Z,49.18
2018-07-25T17:34:16.972Z,49.09
2018-07-25T17:37:21.238Z,49.15
2018-07-25T17:40:25.545Z,49.65
2018-07-25T17:43:29.837Z,49.68
2018-07-25T17:46:34.076Z,49.53
2018-07-25T17:49:38.341Z,48.95
2018-07-25T17:52:42.579Z,49.87
2018-07-25T17:55:46.841Z,50.35
2018-07-25T17:58:51.053Z,49.46
2018-07-25T18:01:55.347Z,50.20
2018-07-25T18:04:59.352Z,49.70
2018-07-25T18:08:03.607Z,50.63
2018-07-25T18:11:07.834Z,49.65
2018-07-25T18:14:15.260Z,49.55
2018-07-25T18:17:19.498Z,50.20
2018-07-25T18:20:23.766Z,49.99
2018-07-25T18:23:28.009Z,50.25
2018-07-25T18:26:32.236Z,50.23
2018-07-25T18:29:36.458Z,50.40
2018-07-25T18:32:40.700Z,50.76
2018-07-25T18:35:44.951Z,50.79
2018-07-25T18:38:49.141Z,51.38
2018-07-25T18:41:53.340Z,51.35
2018-07-25T18:44:57.553Z,52.04
2018-07-25T18:48:01.766Z,51.46
2018-07-25T18:51:06.189Z,52.47
2018-07-25T18:54:10.417Z,52.77
2018-07-25T18:57:14.621Z,52.71
2018-07-25T19:00:18.845Z,52.94
2018-07-25T19:03:23.063Z,52.70
2018-07-25T19:06:27.300Z,53.94
2018-07-25T19:09:31.510Z,54.21
2018-07-25T19:12:35.728Z,53.77
2018-07-25T19:15:39.959Z,53.71
2018-07-25T19:18:44.155Z,54.86
2018-07-25T19:21:48.377Z,55.19
2018-07-25T19:24:52.608Z,55.39
2018-07-25T19:27:56.801Z,55.24
2018-07-25T19:31:01.021Z,56.89
2018-07-25T19:34:05.204Z,56.69
2018-07-25T19:37:09.449Z,56.55
2018-07-25T19:40:13.673Z,58.06
2018-07-25T19:43:17.927Z,58.34
2018-07-25T19:46:22.134Z,56.59
2018-07-25T19:49:26.366Z,56.86
2018-07-25T19:52:30.556Z,56.05
2018-07-25T19:55:34.805Z,55.55
2018-07-25T19:58:39.021Z,54.92
2018-07-25T20:01:43.209Z,54.54
2018-07-25T20:04:47.465Z,54.24
2018-07-25T20:07:51.669Z,53.90
2018-07-25T20:10:55.865Z,54.10
2018-07-25T20:14:05.445Z,53.13
2018-07-25T20:17:09.647Z,53.90
2018-07-25T20:20:13.889Z,53.41
2018-07-25T20:23:18.101Z,53.65
2018-07-25T20:26:22.323Z,53.70
2018-07-25T20:29:26.533Z,53.54
2018-07-25T20:32:30.736Z,53.61
2018-07-25T20:35:34.940Z,53.28
2018-07-25T20:38:39.150Z,54.12
2018-07-25T20:41:43.357Z,53.88
2018-07-25T20:44:47.573Z,54.13
2018-07-25T20:47:51.809Z,53.93
2018-07-25T20:50:56.044Z,54.20
2018-07-25T20:54:00.273Z,55.37
2018-07-25T20:57:04.537Z,55.20
2018-07-25T21:00:08.820Z,55.64
2018-07-25T21:03:13.002Z,57.00
2018-07-25T21:06:17.226Z,58.66
2018-07-25T21:09:21.451Z,59.23
2018-07-25T21:12:25.788Z,59.27
2018-07-25T21:15:30.038Z,60.50
2018-07-25T21:18:34.229Z,61.01
2018-07-25T21:21:38.525Z,61.47
2018-07-25T21:24:42.667Z,61.93
2018-07-25T21:27:46.922Z,61.47
2018-07-25T21:30:51.117Z,62.14
2018-07-25T21:33:55.320Z,63.23
2018-07-25T21:36:59.530Z,63.72
2018-07-25T21:40:03.793Z,64.48
2018-07-25T21:43:07.993Z,64.84
2018-07-25T21:46:12.192Z,65.13
2018-07-25T21:49:16.386Z,64.73
2018-07-25T21:52:20.636Z,65.21
2018-07-25T21:55:24.848Z,65.50
2018-07-25T21:58:29.066Z,66.15
2018-07-25T22:01:33.260Z,66.87
2018-07-25T22:04:37.526Z,67.06
2018-07-25T22:07:41.769Z,66.54
2018-07-25T22:10:45.990Z,67.32
2018-07-25T22:13:55.713Z,66.80
2018-07-25T22:16:59.899Z,67.52
2018-07-25T22:20:04.169Z,67.26
2018-07-25T22:23:08.412Z,67.39
2018-07-25T22:26:12.824Z,67.42
2018-07-25T22:29:17.018Z,67.94
2018-07-25T22:32:21.233Z,68.15
2018-07-25T22:35:25.472Z,68.23
2018-07-25T22:38:29.686Z,69.05
2018-07-25T22:41:33.904Z,68.63
2018-07-25T22:44:38.132Z,69.42
2018-07-25T22:47:42.346Z,69.06
2018-07-25T22:50:46.602Z,69.86
2018-07-25T22:53:50.828Z,69.53
2018-07-25T22:56:55.053Z,70.45
2018-07-25T22:59:59.266Z,70.91
2018-07-25T23:03:03.485Z,70.59
2018-07-25T23:06:07.760Z,71.74
2018-07-25T23:09:12.644Z,72.01
2018-07-25T23:12:16.840Z,72.07
2018-07-25T23:15:21.168Z,71.32
2018-07-25T23:18:25.386Z,71.48
2018-07-25T23:21:29.608Z,72.41
2018-07-25T23:24:33.846Z,72.58
2018-07-25T23:27:38.049Z,71.94
2018-07-25T23:30:42.329Z,72.46
2018-07-25T23:33:47.376Z,73.01
2018-07-25T23:36:51.597Z,72.81
2018-07-25T23:39:55.837Z,73.26
2018-07-25T23:43:00.040Z,73.30
2018-07-25T23:46:04.265Z,73.60
2018-07-25T23:49:08.475Z,73.41
2018-07-25T23:52:12.710Z,72.77
2018-07-25T23:55:16.920Z,73.19
2018-07-25T23:58:21.137Z,73.96
